sensor_id;sensor_type;location;lat;lon;timestamp;P1;durP1;ratioP1;P2;durP2;ratioP2
75894;SDS011;64573;50.328;15.014;2022-11-12T00:01:03;93.30;;;28.35;;
75894;SDS011;64573;50.328;15.014;2022-11-12T00:03:29;92.53;;;27.88;;
75894;SDS011;64573;50.328;15.014;2022-11-12T00:05:54;120.13;;;33.50;;
75894;SDS011;64573;50.328;15.014;2022-11-12T00:08:19;89.50;;;26.70;;
75894;SDS011;64573;50.328;15.014;2022-11-12T00:10:45;96.30;;;27.33;;
75894;SDS011;64573;50.328;15.014;2022-11-12T00:13:11;98.22;;;25.25;;
75894;SDS011;64573;50.328;15.014;2022-11-12T00:18:05;89.20;;;25.52;;
75894;SDS011;64573;50.328;15.014;2022-11-12T00:20:31;87.10;;;24.13;;
75894;SDS011;64573;50.328;15.014;2022-11-12T00:22:57;83.47;;;23.08;;
75894;SDS011;64573;50.328;15.014;2022-11-12T00:25:22;76.43;;;22.00;;
75894;SDS011;64573;50.328;15.014;2022-11-12T00:27:48;73.75;;;22.17;;
75894;SDS011;64573;50.328;15.014;2022-11-12T00:30:13;75.80;;;22.08;;
75894;SDS011;64573;50.328;15.014;2022-11-12T00:32:38;75.88;;;21.27;;
75894;SDS011;64573;50.328;15.014;2022-11-12T00:35:04;78.43;;;22.02;;
75894;SDS011;64573;50.328;15.014;2022-11-12T00:37:30;77.88;;;22.95;;
75894;SDS011;64573;50.328;15.014;2022-11-12T00:39:56;79.90;;;22.60;;
75894;SDS011;64573;50.328;15.014;2022-11-12T00:42:22;86.50;;;24.92;;
75894;SDS011;64573;50.328;15.014;2022-11-12T00:44:47;75.97;;;24.50;;
75894;SDS011;64573;50.328;15.014;2022-11-12T00:47:14;72.10;;;24.92;;
75894;SDS011;64573;50.328;15.014;2022-11-12T00:49:39;80.68;;;26.10;;
75894;SDS011;64573;50.328;15.014;2022-11-12T00:52:05;82.43;;;25.88;;
75894;SDS011;64573;50.328;15.014;2022-11-12T00:54:30;79.90;;;24.15;;
75894;SDS011;64573;50.328;15.014;2022-11-12T00:56:56;73.88;;;26.10;;
75894;SDS011;64573;50.328;15.014;2022-11-12T00:59:21;90.63;;;27.40;;
75894;SDS011;64573;50.328;15.014;2022-11-12T01:01:46;78.35;;;24.70;;
75894;SDS011;64573;50.328;15.014;2022-11-12T01:04:11;92.65;;;26.25;;
75894;SDS011;64573;50.328;15.014;2022-11-12T01:06:40;89.43;;;26.02;;
75894;SDS011;64573;50.328;15.014;2022-11-12T01:09:06;112.00;;;33.05;;
75894;SDS011;64573;50.328;15.014;2022-11-12T01:11:33;121.60;;;35.20;;
75894;SDS011;64573;50.328;15.014;2022-11-12T01:14:00;157.38;;;52.40;;
75894;SDS011;64573;50.328;15.014;2022-11-12T01:16:29;136.23;;;41.00;;
75894;SDS011;64573;50.328;15.014;2022-11-12T01:18:57;115.72;;;32.63;;
75894;SDS011;64573;50.328;15.014;2022-11-12T01:21:24;105.85;;;27.83;;
75894;SDS011;64573;50.328;15.014;2022-11-12T01:23:51;89.38;;;24.65;;
75894;SDS011;64573;50.328;15.014;2022-11-12T01:26:17;72.30;;;22.65;;
75894;SDS011;64573;50.328;15.014;2022-11-12T01:28:44;78.88;;;24.42;;
75894;SDS011;64573;50.328;15.014;2022-11-12T01:33:35;73.55;;;20.63;;
75894;SDS011;64573;50.328;15.014;2022-11-12T01:36:01;67.85;;;21.77;;
75894;SDS011;64573;50.328;15.014;2022-11-12T01:38:26;72.05;;;23.55;;
75894;SDS011;64573;50.328;15.014;2022-11-12T01:40:51;75.07;;;24.30;;
75894;SDS011;64573;50.328;15.014;2022-11-12T01:43:17;90.80;;;25.75;;
75894;SDS011;64573;50.328;15.014;2022-11-12T01:45:43;91.95;;;27.45;;
75894;SDS011;64573;50.328;15.014;2022-11-12T01:48:20;108.25;;;28.27;;
75894;SDS011;64573;50.328;15.014;2022-11-12T01:50:49;110.25;;;28.60;;
75894;SDS011;64573;50.328;15.014;2022-11-12T01:53:15;123.97;;;28.60;;
75894;SDS011;64573;50.328;15.014;2022-11-12T01:55:40;126.43;;;27.90;;
75894;SDS011;64573;50.328;15.014;2022-11-12T01:58:09;233.85;;;32.05;;
75894;SDS011;64573;50.328;15.014;2022-11-12T02:03:07;226.73;;;30.15;;
75894;SDS011;64573;50.328;15.014;2022-11-12T02:05:37;320.55;;;32.97;;
75894;SDS011;64573;50.328;15.014;2022-11-12T02:08:04;206.05;;;28.15;;
75894;SDS011;64573;50.328;15.014;2022-11-12T02:10:31;192.07;;;26.95;;
75894;SDS011;64573;50.328;15.014;2022-11-12T02:12:58;224.30;;;29.40;;
75894;SDS011;64573;50.328;15.014;2022-11-12T02:18:09;254.98;;;29.48;;
75894;SDS011;64573;50.328;15.014;2022-11-12T02:20:35;297.52;;;32.35;;
75894;SDS011;64573;50.328;15.014;2022-11-12T02:23:01;157.60;;;28.50;;
75894;SDS011;64573;50.328;15.014;2022-11-12T02:25:27;125.60;;;26.77;;
75894;SDS011;64573;50.328;15.014;2022-11-12T02:27:53;174.35;;;26.75;;
75894;SDS011;64573;50.328;15.014;2022-11-12T02:30:32;307.52;;;32.25;;
75894;SDS011;64573;50.328;15.014;2022-11-12T02:33:05;229.80;;;29.52;;
75894;SDS011;64573;50.328;15.014;2022-11-12T02:35:31;283.17;;;30.25;;
75894;SDS011;64573;50.328;15.014;2022-11-12T02:37:56;286.67;;;30.30;;
75894;SDS011;64573;50.328;15.014;2022-11-12T02:40:22;238.18;;;29.05;;
75894;SDS011;64573;50.328;15.014;2022-11-12T02:42:47;234.45;;;28.52;;
75894;SDS011;64573;50.328;15.014;2022-11-12T02:45:13;219.75;;;27.45;;
75894;SDS011;64573;50.328;15.014;2022-11-12T02:47:39;164.75;;;24.13;;
75894;SDS011;64573;50.328;15.014;2022-11-12T02:50:04;225.55;;;28.33;;
75894;SDS011;64573;50.328;15.014;2022-11-12T02:52:30;229.30;;;26.45;;
75894;SDS011;64573;50.328;15.014;2022-11-12T02:54:56;197.57;;;25.20;;
75894;SDS011;64573;50.328;15.014;2022-11-12T02:57:22;138.85;;;22.98;;
75894;SDS011;64573;50.328;15.014;2022-11-12T02:59:47;232.35;;;27.10;;
75894;SDS011;64573;50.328;15.014;2022-11-12T03:02:12;193.23;;;26.20;;
75894;SDS011;64573;50.328;15.014;2022-11-12T03:04:38;292.98;;;28.42;;
75894;SDS011;64573;50.328;15.014;2022-11-12T03:07:03;261.58;;;30.17;;
75894;SDS011;64573;50.328;15.014;2022-11-12T03:09:28;294.00;;;28.50;;
75894;SDS011;64573;50.328;15.014;2022-11-12T03:11:54;141.30;;;22.58;;
75894;SDS011;64573;50.328;15.014;2022-11-12T03:14:19;189.40;;;24.48;;
75894;SDS011;64573;50.328;15.014;2022-11-12T03:16:44;177.98;;;24.92;;
75894;SDS011;64573;50.328;15.014;2022-11-12T03:19:10;246.95;;;26.58;;
75894;SDS011;64573;50.328;15.014;2022-11-12T03:21:35;205.80;;;25.08;;
75894;SDS011;64573;50.328;15.014;2022-11-12T03:24:00;167.38;;;22.88;;
75894;SDS011;64573;50.328;15.014;2022-11-12T03:26:26;125.70;;;22.25;;
75894;SDS011;64573;50.328;15.014;2022-11-12T03:28:51;165.38;;;22.10;;
75894;SDS011;64573;50.328;15.014;2022-11-12T03:31:17;208.27;;;24.45;;
75894;SDS011;64573;50.328;15.014;2022-11-12T03:33:42;158.20;;;22.20;;
75894;SDS011;64573;50.328;15.014;2022-11-12T03:36:08;296.50;;;28.45;;
75894;SDS011;64573;50.328;15.014;2022-11-12T03:38:33;218.93;;;25.85;;
75894;SDS011;64573;50.328;15.014;2022-11-12T03:43:24;147.38;;;23.02;;
75894;SDS011;64573;50.328;15.014;2022-11-12T03:45:49;256.17;;;26.38;;
75894;SDS011;64573;50.328;15.014;2022-11-12T03:48:14;228.73;;;27.65;;
75894;SDS011;64573;50.328;15.014;2022-11-12T03:50:39;130.00;;;22.67;;
75894;SDS011;64573;50.328;15.014;2022-11-12T03:53:05;194.93;;;23.50;;
75894;SDS011;64573;50.328;15.014;2022-11-12T03:55:32;204.18;;;25.65;;
75894;SDS011;64573;50.328;15.014;2022-11-12T03:57:57;340.20;;;30.50;;
75894;SDS011;64573;50.328;15.014;2022-11-12T04:00:24;289.60;;;29.13;;
75894;SDS011;64573;50.328;15.014;2022-11-12T04:02:51;196.77;;;25.15;;
75894;SDS011;64573;50.328;15.014;2022-11-12T04:05:16;289.67;;;29.02;;
75894;SDS011;64573;50.328;15.014;2022-11-12T04:10:46;175.13;;;24.38;;
75894;SDS011;64573;50.328;15.014;2022-11-12T04:13:12;248.82;;;28.65;;
75894;SDS011;64573;50.328;15.014;2022-11-12T04:15:54;406.88;;;32.67;;
75894;SDS011;64573;50.328;15.014;2022-11-12T04:18:36;489.33;;;35.67;;
75894;SDS011;64573;50.328;15.014;2022-11-12T04:21:20;489.65;;;37.95;;
75894;SDS011;64573;50.328;15.014;2022-11-12T04:24:05;355.55;;;33.40;;
75894;SDS011;64573;50.328;15.014;2022-11-12T04:26:31;348.42;;;35.50;;
75894;SDS011;64573;50.328;15.014;2022-11-12T04:28:56;299.05;;;32.78;;
75894;SDS011;64573;50.328;15.014;2022-11-12T04:31:40;393.23;;;34.72;;
75894;SDS011;64573;50.328;15.014;2022-11-12T04:34:05;452.88;;;35.28;;
75894;SDS011;64573;50.328;15.014;2022-11-12T04:36:49;369.05;;;34.15;;
75894;SDS011;64573;50.328;15.014;2022-11-12T04:39:15;437.58;;;38.20;;
75894;SDS011;64573;50.328;15.014;2022-11-12T04:41:40;395.95;;;35.63;;
75894;SDS011;64573;50.328;15.014;2022-11-12T04:44:07;382.05;;;35.50;;
75894;SDS011;64573;50.328;15.014;2022-11-12T04:46:51;385.77;;;34.90;;
75894;SDS011;64573;50.328;15.014;2022-11-12T04:49:17;431.50;;;33.90;;
75894;SDS011;64573;50.328;15.014;2022-11-12T04:51:42;261.75;;;28.95;;
75894;SDS011;64573;50.328;15.014;2022-11-12T04:54:26;385.67;;;31.92;;
75894;SDS011;64573;50.328;15.014;2022-11-12T04:56:52;302.10;;;31.52;;
75894;SDS011;64573;50.328;15.014;2022-11-12T04:59:17;343.63;;;30.75;;
75894;SDS011;64573;50.328;15.014;2022-11-12T05:01:42;368.35;;;29.77;;
75894;SDS011;64573;50.328;15.014;2022-11-12T05:04:08;295.88;;;27.00;;
75894;SDS011;64573;50.328;15.014;2022-11-12T05:06:33;305.77;;;29.70;;
75894;SDS011;64573;50.328;15.014;2022-11-12T05:09:07;297.23;;;31.40;;
75894;SDS011;64573;50.328;15.014;2022-11-12T05:11:32;233.43;;;32.15;;
75894;SDS011;64573;50.328;15.014;2022-11-12T05:13:57;242.65;;;28.83;;
75894;SDS011;64573;50.328;15.014;2022-11-12T05:16:23;368.35;;;33.28;;
75894;SDS011;64573;50.328;15.014;2022-11-12T05:18:48;438.58;;;34.60;;
75894;SDS011;64573;50.328;15.014;2022-11-12T05:21:14;307.30;;;27.58;;
75894;SDS011;64573;50.328;15.014;2022-11-12T05:23:58;249.73;;;25.58;;
75894;SDS011;64573;50.328;15.014;2022-11-12T05:26:23;313.85;;;28.40;;
75894;SDS011;64573;50.328;15.014;2022-11-12T05:28:48;179.52;;;23.90;;
75894;SDS011;64573;50.328;15.014;2022-11-12T05:31:14;274.90;;;25.38;;
75894;SDS011;64573;50.328;15.014;2022-11-12T05:33:39;313.83;;;28.02;;
75894;SDS011;64573;50.328;15.014;2022-11-12T05:36:04;269.08;;;25.67;;
75894;SDS011;64573;50.328;15.014;2022-11-12T05:38:30;180.63;;;22.27;;
75894;SDS011;64573;50.328;15.014;2022-11-12T05:40:55;196.85;;;21.88;;
75894;SDS011;64573;50.328;15.014;2022-11-12T05:43:20;259.70;;;26.40;;
75894;SDS011;64573;50.328;15.014;2022-11-12T05:45:46;331.48;;;29.45;;
75894;SDS011;64573;50.328;15.014;2022-11-12T05:48:11;271.10;;;26.52;;
75894;SDS011;64573;50.328;15.014;2022-11-12T05:50:36;236.25;;;23.83;;
75894;SDS011;64573;50.328;15.014;2022-11-12T05:53:02;216.48;;;25.30;;
75894;SDS011;64573;50.328;15.014;2022-11-12T05:55:27;178.07;;;23.08;;
75894;SDS011;64573;50.328;15.014;2022-11-12T05:57:52;269.45;;;27.13;;
75894;SDS011;64573;50.328;15.014;2022-11-12T06:00:18;175.15;;;22.73;;
75894;SDS011;64573;50.328;15.014;2022-11-12T06:02:43;231.43;;;25.45;;
75894;SDS011;64573;50.328;15.014;2022-11-12T06:05:08;172.50;;;23.02;;
75894;SDS011;64573;50.328;15.014;2022-11-12T06:07:34;214.13;;;24.05;;
75894;SDS011;64573;50.328;15.014;2022-11-12T06:09:59;287.25;;;28.55;;
75894;SDS011;64573;50.328;15.014;2022-11-12T06:12:24;229.95;;;27.00;;
75894;SDS011;64573;50.328;15.014;2022-11-12T06:14:50;313.65;;;29.38;;
75894;SDS011;64573;50.328;15.014;2022-11-12T06:17:15;265.25;;;28.13;;
75894;SDS011;64573;50.328;15.014;2022-11-12T06:19:41;283.08;;;29.92;;
75894;SDS011;64573;50.328;15.014;2022-11-12T06:22:06;361.02;;;33.25;;
75894;SDS011;64573;50.328;15.014;2022-11-12T06:24:31;312.67;;;31.90;;
75894;SDS011;64573;50.328;15.014;2022-11-12T06:26:57;353.75;;;34.92;;
75894;SDS011;64573;50.328;15.014;2022-11-12T06:29:22;351.88;;;35.90;;
75894;SDS011;64573;50.328;15.014;2022-11-12T06:31:47;333.00;;;37.10;;
75894;SDS011;64573;50.328;15.014;2022-11-12T06:34:13;322.80;;;34.97;;
75894;SDS011;64573;50.328;15.014;2022-11-12T06:36:38;263.48;;;35.03;;
75894;SDS011;64573;50.328;15.014;2022-11-12T06:39:04;295.33;;;37.35;;
75894;SDS011;64573;50.328;15.014;2022-11-12T06:41:29;274.30;;;37.35;;
75894;SDS011;64573;50.328;15.014;2022-11-12T06:46:19;424.73;;;44.25;;
75894;SDS011;64573;50.328;15.014;2022-11-12T06:48:45;284.45;;;40.53;;
75894;SDS011;64573;50.328;15.014;2022-11-12T06:51:11;362.70;;;41.85;;
75894;SDS011;64573;50.328;15.014;2022-11-12T06:53:41;395.85;;;41.13;;
75894;SDS011;64573;50.328;15.014;2022-11-12T06:58:32;485.25;;;44.22;;
75894;SDS011;64573;50.328;15.014;2022-11-12T07:01:02;511.08;;;44.95;;
75894;SDS011;64573;50.328;15.014;2022-11-12T07:03:25;323.77;;;40.58;;
75894;SDS011;64573;50.328;15.014;2022-11-12T07:05:50;480.33;;;47.53;;
75894;SDS011;64573;50.328;15.014;2022-11-12T07:08:15;413.98;;;42.22;;
75894;SDS011;64573;50.328;15.014;2022-11-12T07:10:41;439.65;;;41.30;;
75894;SDS011;64573;50.328;15.014;2022-11-12T07:13:06;358.58;;;39.17;;
75894;SDS011;64573;50.328;15.014;2022-11-12T07:15:31;316.67;;;35.83;;
75894;SDS011;64573;50.328;15.014;2022-11-12T07:17:57;368.27;;;34.97;;
75894;SDS011;64573;50.328;15.014;2022-11-12T07:20:22;536.65;;;43.50;;
75894;SDS011;64573;50.328;15.014;2022-11-12T07:22:51;376.50;;;35.45;;
75894;SDS011;64573;50.328;15.014;2022-11-12T07:25:16;394.13;;;38.78;;
75894;SDS011;64573;50.328;15.014;2022-11-12T07:27:41;350.95;;;38.58;;
75894;SDS011;64573;50.328;15.014;2022-11-12T07:30:07;414.80;;;37.92;;
75894;SDS011;64573;50.328;15.014;2022-11-12T07:32:33;396.52;;;39.10;;
75894;SDS011;64573;50.328;15.014;2022-11-12T07:34:58;349.23;;;35.47;;
75894;SDS011;64573;50.328;15.014;2022-11-12T07:37:24;470.50;;;36.85;;
75894;SDS011;64573;50.328;15.014;2022-11-12T07:39:49;340.67;;;32.63;;
75894;SDS011;64573;50.328;15.014;2022-11-12T07:42:14;308.77;;;33.30;;
75894;SDS011;64573;50.328;15.014;2022-11-12T07:44:39;354.73;;;34.53;;
75894;SDS011;64573;50.328;15.014;2022-11-12T07:47:05;500.38;;;37.38;;
75894;SDS011;64573;50.328;15.014;2022-11-12T07:49:30;218.48;;;30.52;;
75894;SDS011;64573;50.328;15.014;2022-11-12T07:51:55;399.33;;;32.58;;
75894;SDS011;64573;50.328;15.014;2022-11-12T07:54:21;307.60;;;31.88;;
75894;SDS011;64573;50.328;15.014;2022-11-12T07:56:46;348.08;;;33.85;;
75894;SDS011;64573;50.328;15.014;2022-11-12T07:59:11;327.17;;;29.58;;
75894;SDS011;64573;50.328;15.014;2022-11-12T08:01:38;414.00;;;36.03;;
75894;SDS011;64573;50.328;15.014;2022-11-12T08:04:06;466.65;;;40.42;;
75894;SDS011;64573;50.328;15.014;2022-11-12T08:06:33;347.38;;;34.75;;
75894;SDS011;64573;50.328;15.014;2022-11-12T08:09:00;323.23;;;35.40;;
75894;SDS011;64573;50.328;15.014;2022-11-12T08:11:28;371.92;;;36.35;;
75894;SDS011;64573;50.328;15.014;2022-11-12T08:13:53;340.83;;;34.78;;
75894;SDS011;64573;50.328;15.014;2022-11-12T08:16:19;466.70;;;42.13;;
75894;SDS011;64573;50.328;15.014;2022-11-12T08:18:44;386.70;;;35.20;;
75894;SDS011;64573;50.328;15.014;2022-11-12T08:21:11;489.88;;;42.30;;
75894;SDS011;64573;50.328;15.014;2022-11-12T08:23:38;463.92;;;41.10;;
75894;SDS011;64573;50.328;15.014;2022-11-12T08:26:05;530.17;;;43.13;;
75894;SDS011;64573;50.328;15.014;2022-11-12T08:28:33;534.42;;;41.45;;
75894;SDS011;64573;50.328;15.014;2022-11-12T08:31:03;487.63;;;39.28;;
75894;SDS011;64573;50.328;15.014;2022-11-12T08:33:34;450.38;;;33.67;;
75894;SDS011;64573;50.328;15.014;2022-11-12T08:36:03;403.75;;;33.10;;
75894;SDS011;64573;50.328;15.014;2022-11-12T08:38:29;375.33;;;35.58;;
75894;SDS011;64573;50.328;15.014;2022-11-12T08:40:54;449.67;;;38.90;;
75894;SDS011;64573;50.328;15.014;2022-11-12T08:43:24;371.02;;;35.10;;
75894;SDS011;64573;50.328;15.014;2022-11-12T08:45:49;224.95;;;29.15;;
75894;SDS011;64573;50.328;15.014;2022-11-12T08:48:15;245.63;;;28.98;;
75894;SDS011;64573;50.328;15.014;2022-11-12T08:50:40;341.42;;;31.92;;
75894;SDS011;64573;50.328;15.014;2022-11-12T08:53:09;323.67;;;35.03;;
75894;SDS011;64573;50.328;15.014;2022-11-12T08:55:36;365.38;;;33.65;;
75894;SDS011;64573;50.328;15.014;2022-11-12T08:58:02;320.48;;;33.42;;
75894;SDS011;64573;50.328;15.014;2022-11-12T09:00:32;269.20;;;31.42;;
75894;SDS011;64573;50.328;15.014;2022-11-12T09:03:00;288.33;;;30.85;;
75894;SDS011;64573;50.328;15.014;2022-11-12T09:05:26;408.35;;;36.30;;
75894;SDS011;64573;50.328;15.014;2022-11-12T09:08:02;464.75;;;39.80;;
75894;SDS011;64573;50.328;15.014;2022-11-12T09:10:29;383.35;;;38.83;;
75894;SDS011;64573;50.328;15.014;2022-11-12T09:12:55;276.02;;;32.58;;
75894;SDS011;64573;50.328;15.014;2022-11-12T09:15:21;204.38;;;27.60;;
75894;SDS011;64573;50.328;15.014;2022-11-12T09:17:47;278.13;;;31.83;;
75894;SDS011;64573;50.328;15.014;2022-11-12T09:20:12;242.73;;;32.45;;
75894;SDS011;64573;50.328;15.014;2022-11-12T09:22:38;201.93;;;32.20;;
75894;SDS011;64573;50.328;15.014;2022-11-12T09:25:04;299.67;;;31.58;;
75894;SDS011;64573;50.328;15.014;2022-11-12T09:27:30;345.75;;;37.03;;
75894;SDS011;64573;50.328;15.014;2022-11-12T09:29:55;203.13;;;29.88;;
75894;SDS011;64573;50.328;15.014;2022-11-12T09:32:20;329.27;;;48.22;;
75894;SDS011;64573;50.328;15.014;2022-11-12T09:34:46;206.80;;;27.55;;
75894;SDS011;64573;50.328;15.014;2022-11-12T09:37:11;155.00;;;25.08;;
75894;SDS011;64573;50.328;15.014;2022-11-12T09:39:36;199.27;;;24.95;;
75894;SDS011;64573;50.328;15.014;2022-11-12T09:42:05;230.68;;;30.05;;
75894;SDS011;64573;50.328;15.014;2022-11-12T09:44:33;350.73;;;36.45;;
75894;SDS011;64573;50.328;15.014;2022-11-12T09:47:03;448.42;;;40.40;;
75894;SDS011;64573;50.328;15.014;2022-11-12T09:49:39;253.60;;;31.65;;
75894;SDS011;64573;50.328;15.014;2022-11-12T09:54:43;293.27;;;34.58;;
75894;SDS011;64573;50.328;15.014;2022-11-12T09:59:36;347.58;;;35.15;;
75894;SDS011;64573;50.328;15.014;2022-11-12T10:08:23;130.70;;;23.90;;
75894;SDS011;64573;50.328;15.014;2022-11-12T10:24:18;189.23;;;30.03;;
75894;SDS011;64573;50.328;15.014;2022-11-12T10:26:45;140.55;;;28.23;;
75894;SDS011;64573;50.328;15.014;2022-11-12T10:29:26;92.05;;;27.20;;
75894;SDS011;64573;50.328;15.014;2022-11-12T10:31:59;103.10;;;28.77;;
75894;SDS011;64573;50.328;15.014;2022-11-12T10:34:25;93.50;;;28.75;;
75894;SDS011;64573;50.328;15.014;2022-11-12T10:36:52;98.72;;;30.33;;
75894;SDS011;64573;50.328;15.014;2022-11-12T10:39:40;99.68;;;29.63;;
75894;SDS011;64573;50.328;15.014;2022-11-12T10:42:12;81.25;;;27.35;;
75894;SDS011;64573;50.328;15.014;2022-11-12T10:44:39;74.32;;;27.67;;
75894;SDS011;64573;50.328;15.014;2022-11-12T10:49:42;75.65;;;27.73;;
75894;SDS011;64573;50.328;15.014;2022-11-12T10:52:21;67.47;;;26.92;;
75894;SDS011;64573;50.328;15.014;2022-11-12T10:54:48;72.07;;;27.98;;
75894;SDS011;64573;50.328;15.014;2022-11-12T10:57:29;72.07;;;27.17;;
75894;SDS011;64573;50.328;15.014;2022-11-12T11:02:32;77.38;;;27.48;;
75894;SDS011;64573;50.328;15.014;2022-11-12T11:04:58;78.00;;;29.70;;
75894;SDS011;64573;50.328;15.014;2022-11-12T11:07:24;70.65;;;27.00;;
75894;SDS011;64573;50.328;15.014;2022-11-12T11:09:51;85.95;;;28.88;;
75894;SDS011;64573;50.328;15.014;2022-11-12T11:15:03;73.20;;;28.45;;
75894;SDS011;64573;50.328;15.014;2022-11-12T11:17:19;79.15;;;29.35;;
75894;SDS011;64573;50.328;15.014;2022-11-12T11:19:44;78.07;;;28.33;;
75894;SDS011;64573;50.328;15.014;2022-11-12T11:24:49;82.38;;;30.20;;
75894;SDS011;64573;50.328;15.014;2022-11-12T11:30:19;77.65;;;30.30;;
75894;SDS011;64573;50.328;15.014;2022-11-12T11:37:56;72.70;;;26.02;;
75894;SDS011;64573;50.328;15.014;2022-11-12T11:40:45;95.40;;;30.95;;
75894;SDS011;64573;50.328;15.014;2022-11-12T11:46:26;85.22;;;30.67;;
75894;SDS011;64573;50.328;15.014;2022-11-12T11:51:34;86.68;;;31.33;;
75894;SDS011;64573;50.328;15.014;2022-11-12T11:57:20;67.55;;;25.27;;
75894;SDS011;64573;50.328;15.014;2022-11-12T12:05:32;69.32;;;25.85;;
75894;SDS011;64573;50.328;15.014;2022-11-12T12:13:13;47.85;;;21.10;;
75894;SDS011;64573;50.328;15.014;2022-11-12T12:21:27;44.33;;;20.70;;
75894;SDS011;64573;50.328;15.014;2022-11-12T12:24:02;48.53;;;21.63;;
75894;SDS011;64573;50.328;15.014;2022-11-12T12:26:39;53.10;;;24.60;;
75894;SDS011;64573;50.328;15.014;2022-11-12T12:31:36;54.75;;;22.20;;
75894;SDS011;64573;50.328;15.014;2022-11-12T12:34:15;50.88;;;21.23;;
75894;SDS011;64573;50.328;15.014;2022-11-12T12:36:51;50.50;;;20.88;;
75894;SDS011;64573;50.328;15.014;2022-11-12T12:42:21;51.78;;;21.48;;
75894;SDS011;64573;50.328;15.014;2022-11-12T12:44:55;52.65;;;22.33;;
75894;SDS011;64573;50.328;15.014;2022-11-12T12:47:35;51.95;;;22.55;;
75894;SDS011;64573;50.328;15.014;2022-11-12T12:50:05;54.90;;;23.98;;
75894;SDS011;64573;50.328;15.014;2022-11-12T12:55:42;50.85;;;21.08;;
75894;SDS011;64573;50.328;15.014;2022-11-12T12:58:16;49.17;;;20.58;;
75894;SDS011;64573;50.328;15.014;2022-11-12T13:00:45;49.88;;;20.52;;
75894;SDS011;64573;50.328;15.014;2022-11-12T13:03:22;53.90;;;21.15;;
75894;SDS011;64573;50.328;15.014;2022-11-12T13:08:44;58.40;;;22.88;;
75894;SDS011;64573;50.328;15.014;2022-11-12T13:11:10;55.53;;;21.15;;
75894;SDS011;64573;50.328;15.014;2022-11-12T13:37:41;59.65;;;21.98;;
75894;SDS011;64573;50.328;15.014;2022-11-12T13:40:11;66.03;;;22.98;;
75894;SDS011;64573;50.328;15.014;2022-11-12T13:45:05;70.13;;;23.17;;
75894;SDS011;64573;50.328;15.014;2022-11-12T13:47:31;67.53;;;25.40;;
75894;SDS011;64573;50.328;15.014;2022-11-12T13:49:57;66.50;;;24.38;;
75894;SDS011;64573;50.328;15.014;2022-11-12T13:52:24;58.47;;;21.45;;
75894;SDS011;64573;50.328;15.014;2022-11-12T13:55:00;59.50;;;20.92;;
75894;SDS011;64573;50.328;15.014;2022-11-12T13:57:29;59.20;;;21.08;;
75894;SDS011;64573;50.328;15.014;2022-11-12T14:00:09;55.25;;;20.98;;
75894;SDS011;64573;50.328;15.014;2022-11-12T14:02:45;66.03;;;21.73;;
75894;SDS011;64573;50.328;15.014;2022-11-12T14:05:31;69.53;;;24.25;;
75894;SDS011;64573;50.328;15.014;2022-11-12T14:16:40;69.30;;;22.10;;
75894;SDS011;64573;50.328;15.014;2022-11-12T14:21:59;76.70;;;24.73;;
75894;SDS011;64573;50.328;15.014;2022-11-12T14:24:44;76.07;;;24.27;;
75894;SDS011;64573;50.328;15.014;2022-11-12T14:32:36;71.85;;;23.17;;
75894;SDS011;64573;50.328;15.014;2022-11-12T14:35:16;77.05;;;22.50;;
75894;SDS011;64573;50.328;15.014;2022-11-12T14:37:41;72.95;;;23.17;;
75894;SDS011;64573;50.328;15.014;2022-11-12T14:40:16;59.83;;;19.90;;
75894;SDS011;64573;50.328;15.014;2022-11-12T14:42:42;59.45;;;19.48;;
75894;SDS011;64573;50.328;15.014;2022-11-12T14:45:18;69.10;;;21.85;;
75894;SDS011;64573;50.328;15.014;2022-11-12T14:47:46;69.55;;;21.73;;
75894;SDS011;64573;50.328;15.014;2022-11-12T14:50:24;63.10;;;22.40;;
75894;SDS011;64573;50.328;15.014;2022-11-12T14:52:54;70.10;;;26.63;;
75894;SDS011;64573;50.328;15.014;2022-11-12T14:55:26;102.43;;;23.45;;
75894;SDS011;64573;50.328;15.014;2022-11-12T14:57:56;110.90;;;26.80;;
75894;SDS011;64573;50.328;15.014;2022-11-12T15:02:54;111.05;;;26.63;;
75894;SDS011;64573;50.328;15.014;2022-11-12T15:05:21;103.63;;;25.08;;
75894;SDS011;64573;50.328;15.014;2022-11-12T15:07:52;150.38;;;33.80;;
75894;SDS011;64573;50.328;15.014;2022-11-12T15:12:49;126.53;;;29.05;;
75894;SDS011;64573;50.328;15.014;2022-11-12T15:15:20;124.38;;;29.45;;
75894;SDS011;64573;50.328;15.014;2022-11-12T15:17:46;174.73;;;27.42;;
75894;SDS011;64573;50.328;15.014;2022-11-12T15:20:21;186.13;;;27.67;;
75894;SDS011;64573;50.328;15.014;2022-11-12T15:22:50;134.82;;;28.70;;
75894;SDS011;64573;50.328;15.014;2022-11-12T15:30:16;178.77;;;30.52;;
75894;SDS011;64573;50.328;15.014;2022-11-12T15:32:44;222.88;;;33.33;;
75894;SDS011;64573;50.328;15.014;2022-11-12T15:37:51;286.88;;;38.35;;
75894;SDS011;64573;50.328;15.014;2022-11-12T15:40:18;333.33;;;39.17;;
75894;SDS011;64573;50.328;15.014;2022-11-12T15:42:44;350.52;;;39.20;;
75894;SDS011;64573;50.328;15.014;2022-11-12T15:45:15;284.02;;;39.53;;
75894;SDS011;64573;50.328;15.014;2022-11-12T15:47:42;358.17;;;43.90;;
75894;SDS011;64573;50.328;15.014;2022-11-12T15:50:21;405.05;;;58.88;;
75894;SDS011;64573;50.328;15.014;2022-11-12T15:52:48;334.63;;;41.90;;
75894;SDS011;64573;50.328;15.014;2022-11-12T15:55:15;343.25;;;38.17;;
75894;SDS011;64573;50.328;15.014;2022-11-12T15:57:45;335.58;;;44.10;;
75894;SDS011;64573;50.328;15.014;2022-11-12T16:00:21;436.95;;;74.00;;
75894;SDS011;64573;50.328;15.014;2022-11-12T16:02:49;722.75;;;72.35;;
75894;SDS011;64573;50.328;15.014;2022-11-12T16:05:20;587.17;;;74.13;;
75894;SDS011;64573;50.328;15.014;2022-11-12T16:07:46;428.92;;;45.85;;
75894;SDS011;64573;50.328;15.014;2022-11-12T16:10:12;489.83;;;49.80;;
75894;SDS011;64573;50.328;15.014;2022-11-12T16:12:39;507.45;;;45.20;;
75894;SDS011;64573;50.328;15.014;2022-11-12T16:17:35;413.63;;;42.03;;
75894;SDS011;64573;50.328;15.014;2022-11-12T16:20:00;701.45;;;57.78;;
75894;SDS011;64573;50.328;15.014;2022-11-12T16:22:26;406.20;;;43.85;;
75894;SDS011;64573;50.328;15.014;2022-11-12T16:24:52;495.00;;;45.05;;
75894;SDS011;64573;50.328;15.014;2022-11-12T16:27:17;547.25;;;50.50;;
75894;SDS011;64573;50.328;15.014;2022-11-12T16:29:44;548.35;;;45.33;;
75894;SDS011;64573;50.328;15.014;2022-11-12T16:34:35;332.60;;;35.38;;
75894;SDS011;64573;50.328;15.014;2022-11-12T16:37:00;513.78;;;41.47;;
75894;SDS011;64573;50.328;15.014;2022-11-12T16:39:26;469.50;;;45.83;;
75894;SDS011;64573;50.328;15.014;2022-11-12T16:41:51;600.63;;;81.38;;
75894;SDS011;64573;50.328;15.014;2022-11-12T16:44:17;542.38;;;42.92;;
75894;SDS011;64573;50.328;15.014;2022-11-12T16:46:42;296.27;;;36.80;;